createdAt,value
2022-11-29T00:01:24.761Z,62.53
2022-11-29T00:03:51.563Z,78.85
2022-11-29T00:06:20.724Z,79.65
2022-11-29T00:08:47.856Z,112.28
2022-11-29T00:11:44.502Z,101.38
2022-11-29T00:14:14.922Z,95.30
2022-11-29T00:16:41.742Z,86.50
2022-11-29T00:19:09.879Z,114.53
2022-11-29T00:21:36.576Z,93.43
2022-11-29T00:24:03.065Z,76.03
2022-11-29T00:26:29.493Z,84.47
2022-11-29T00:28:55.984Z,68.28
2022-11-29T00:31:27.836Z,78.88
2022-11-29T00:33:54.280Z,71.35
2022-11-29T00:36:20.763Z,83.10
2022-11-29T00:38:47.185Z,114.40
2022-11-29T00:41:13.714Z,80.95
2022-11-29T00:43:40.507Z,105.85
2022-11-29T00:46:08.063Z,97.47
2022-11-29T00:48:35.369Z,88.72
2022-11-29T00:51:02.693Z,93.00
2022-11-29T00:53:29.178Z,93.68
2022-11-29T00:55:56.205Z,72.03
2022-11-29T00:58:23.103Z,82.07
2022-11-29T01:00:49.826Z,119.40
2022-11-29T01:03:17.292Z,70.47
2022-11-29T01:05:44.467Z,70.88
2022-11-29T01:08:11.636Z,69.97
2022-11-29T01:10:38.106Z,69.43
2022-11-29T01:13:04.799Z,67.88
2022-11-29T01:15:31.421Z,64.73
2022-11-29T01:17:58.356Z,76.38
2022-11-29T01:20:24.800Z,62.28
2022-11-29T01:22:51.215Z,66.70
2022-11-29T01:25:19.254Z,65.07
2022-11-29T01:27:46.242Z,58.63
2022-11-29T01:30:14.570Z,60.78
2022-11-29T01:32:41.824Z,67.25
2022-11-29T01:35:08.840Z,57.85
2022-11-29T01:37:35.515Z,66.80
2022-11-29T01:40:02.027Z,66.70
2022-11-29T01:42:28.441Z,66.10
2022-11-29T01:45:33.074Z,65.82
2022-11-29T01:47:59.645Z,65.13
2022-11-29T01:50:26.138Z,56.60
2022-11-29T01:52:52.940Z,70.93
2022-11-29T01:55:19.427Z,68.13
2022-11-29T01:57:46.111Z,54.80
2022-11-29T02:00:17.897Z,62.67
2022-11-29T02:02:45.948Z,68.30
2022-11-29T02:05:14.568Z,50.40
2022-11-29T02:07:45.497Z,66.75
2022-11-29T02:10:13.281Z,62.30
2022-11-29T02:13:00.770Z,53.35
2022-11-29T02:15:54.049Z,50.33
2022-11-29T02:18:49.475Z,54.70
2022-11-29T02:21:25.051Z,50.28
2022-11-29T02:24:12.636Z,55.80
2022-11-29T02:27:10.155Z,53.15
2022-11-29T02:30:08.558Z,56.67
2022-11-29T02:33:13.829Z,51.50
2022-11-29T02:36:07.545Z,56.83
2022-11-29T02:38:55.660Z,58.00
2022-11-29T02:41:42.697Z,55.53
2022-11-29T02:44:21.350Z,52.58
2022-11-29T02:47:15.319Z,60.93
2022-11-29T02:50:02.569Z,54.13
2022-11-29T02:52:53.722Z,46.53
2022-11-29T02:55:43.208Z,46.67
2022-11-29T02:58:19.381Z,50.17
2022-11-29T03:01:05.355Z,52.00
2022-11-29T03:03:38.999Z,52.35
2022-11-29T03:06:21.560Z,47.38
2022-11-29T03:09:04.439Z,45.08
2022-11-29T03:11:41.127Z,57.15
2022-11-29T03:14:24.060Z,59.33
2022-11-29T03:17:12.803Z,62.65
2022-11-29T03:20:03.789Z,60.40
2022-11-29T03:23:15.410Z,53.40
2022-11-29T03:25:54.939Z,95.30
2022-11-29T03:28:30.994Z,84.13
2022-11-29T03:31:24.015Z,84.75
2022-11-29T03:34:22.922Z,52.38
2022-11-29T03:36:56.626Z,51.80
2022-11-29T03:40:03.232Z,54.33
2022-11-29T03:42:50.788Z,84.90
2022-11-29T03:45:42.298Z,55.35
2022-11-29T03:48:29.356Z,53.70
2022-11-29T03:51:19.600Z,47.83
2022-11-29T03:53:58.314Z,57.33
2022-11-29T03:56:36.542Z,46.27
2022-11-29T03:59:08.836Z,46.40
2022-11-29T04:02:01.009Z,40.25
2022-11-29T04:04:56.693Z,63.08
2022-11-29T04:07:47.763Z,86.07
2022-11-29T04:10:43.692Z,91.63
2022-11-29T04:13:46.857Z,54.85
2022-11-29T04:16:39.699Z,82.85
2022-11-29T04:19:19.817Z,68.15
2022-11-29T04:22:14.144Z,60.03
2022-11-29T04:25:03.295Z,72.17
2022-11-29T04:28:08.745Z,48.00
2022-11-29T04:31:17.001Z,63.92
2022-11-29T04:33:46.088Z,71.63
2022-11-29T04:36:30.794Z,60.75
2022-11-29T04:39:15.678Z,65.17
2022-11-29T04:41:57.060Z,84.68
2022-11-29T04:44:50.675Z,62.45
2022-11-29T04:47:40.339Z,55.72
2022-11-29T04:50:39.199Z,58.17
2022-11-29T04:53:23.675Z,55.23
2022-11-29T04:56:01.167Z,60.55
2022-11-29T04:59:02.055Z,62.65
2022-11-29T05:01:56.478Z,52.13
2022-11-29T05:04:56.138Z,44.05
2022-11-29T05:07:35.878Z,57.33
2022-11-29T05:10:05.348Z,37.88
2022-11-29T05:13:17.270Z,56.15
2022-11-29T05:16:01.793Z,39.83
2022-11-29T05:18:36.999Z,57.47
2022-11-29T05:21:12.626Z,43.30
2022-11-29T05:24:17.130Z,51.72
2022-11-29T05:26:54.794Z,46.38
2022-11-29T05:30:02.932Z,46.83
2022-11-29T05:32:44.576Z,51.60
2022-11-29T05:35:32.898Z,56.90
2022-11-29T05:38:08.489Z,59.33
2022-11-29T05:40:59.997Z,44.42
2022-11-29T05:43:43.165Z,61.63
2022-11-29T05:46:33.888Z,50.47
2022-11-29T05:49:18.394Z,42.80
2022-11-29T05:51:58.222Z,49.00
2022-11-29T05:54:33.791Z,36.70
2022-11-29T05:57:13.844Z,45.53
2022-11-29T05:59:42.361Z,45.15
2022-11-29T06:02:17.488Z,56.80
2022-11-29T06:04:55.085Z,39.92
2022-11-29T06:07:41.066Z,33.58
2022-11-29T06:10:17.819Z,42.65
2022-11-29T06:12:54.995Z,38.50
2022-11-29T06:15:43.369Z,34.67
2022-11-29T06:18:23.687Z,45.63
2022-11-29T06:21:18.625Z,43.35
2022-11-29T06:24:25.720Z,38.80
2022-11-29T06:26:52.401Z,50.38
2022-11-29T06:29:34.225Z,48.70
2022-11-29T06:32:26.841Z,49.90
2022-11-29T06:35:03.355Z,31.17
2022-11-29T06:37:36.474Z,37.80
2022-11-29T06:40:03.751Z,44.88
2022-11-29T06:42:30.444Z,51.97
2022-11-29T06:44:57.105Z,41.38
2022-11-29T06:47:32.619Z,38.33
2022-11-29T06:50:35.821Z,39.67
2022-11-29T06:53:13.943Z,51.60
2022-11-29T06:56:18.030Z,37.53
2022-11-29T06:58:47.437Z,31.80
2022-11-29T07:01:49.862Z,37.63
2022-11-29T07:04:27.025Z,44.38
2022-11-29T07:06:53.747Z,56.83
2022-11-29T07:09:25.602Z,51.13
2022-11-29T07:11:52.303Z,55.30
2022-11-29T07:14:18.973Z,48.38
2022-11-29T07:17:15.413Z,49.42
2022-11-29T07:19:57.224Z,38.28
2022-11-29T07:22:48.565Z,40.37
2022-11-29T07:25:30.909Z,40.10
2022-11-29T07:28:03.428Z,54.28
2022-11-29T07:31:08.615Z,41.63
2022-11-29T07:34:03.069Z,27.17
2022-11-29T07:36:52.434Z,42.13
2022-11-29T07:39:37.081Z,30.40
2022-11-29T07:42:34.440Z,46.78
2022-11-29T07:45:11.168Z,40.22
2022-11-29T07:47:37.602Z,34.25
2022-11-29T07:50:04.305Z,38.37
2022-11-29T07:52:30.822Z,42.58
2022-11-29T07:54:57.330Z,37.72
2022-11-29T07:57:23.754Z,37.33
2022-11-29T07:59:50.239Z,41.28
2022-11-29T08:02:27.151Z,54.27
2022-11-29T08:04:53.624Z,41.05
2022-11-29T08:07:20.070Z,32.28
2022-11-29T08:09:46.815Z,41.65
2022-11-29T08:12:13.528Z,36.85
2022-11-29T08:14:40.052Z,28.40
2022-11-29T08:17:06.586Z,31.00
2022-11-29T08:19:33.022Z,24.48
2022-11-29T08:21:59.524Z,27.05
2022-11-29T08:24:26.822Z,27.48
2022-11-29T08:26:53.326Z,28.23
2022-11-29T08:29:19.914Z,27.90
2022-11-29T08:31:53.992Z,23.48
2022-11-29T08:34:21.935Z,23.73
2022-11-29T08:36:49.178Z,23.35
2022-11-29T08:39:15.921Z,21.00
2022-11-29T08:41:42.409Z,22.35
2022-11-29T08:44:08.962Z,25.83
2022-11-29T08:46:54.722Z,26.73
2022-11-29T08:49:21.152Z,24.08
2022-11-29T08:51:47.548Z,20.40
2022-11-29T08:54:14.039Z,24.50
2022-11-29T08:59:27.124Z,25.85
2022-11-29T09:01:53.601Z,24.13
2022-11-29T09:04:20.078Z,23.20
2022-11-29T09:06:49.587Z,25.55
2022-11-29T09:09:16.941Z,18.23
2022-11-29T09:11:48.106Z,22.48
2022-11-29T09:14:16.925Z,18.77
2022-11-29T09:16:43.513Z,22.83
2022-11-29T09:19:10.374Z,24.00
2022-11-29T09:21:36.863Z,26.35
2022-11-29T09:24:06.573Z,29.83
2022-11-29T09:26:35.661Z,74.63
2022-11-29T09:29:03.813Z,35.83
2022-11-29T09:31:32.147Z,33.75
2022-11-29T09:33:59.210Z,27.23
2022-11-29T09:36:28.966Z,21.90
2022-11-29T09:38:57.290Z,18.27
2022-11-29T09:41:51.110Z,20.10
2022-11-29T09:44:30.151Z,19.98
2022-11-29T09:47:33.160Z,20.33
2022-11-29T09:50:31.311Z,22.70
2022-11-29T09:53:26.486Z,24.58
2022-11-29T09:56:14.574Z,26.07
2022-11-29T09:59:02.659Z,27.48
2022-11-29T10:01:38.760Z,23.10
2022-11-29T10:04:12.354Z,20.88
2022-11-29T10:06:44.219Z,18.80
2022-11-29T10:09:38.065Z,20.13
2022-11-29T10:12:27.641Z,23.52
2022-11-29T10:15:01.851Z,17.77
2022-11-29T10:17:44.253Z,22.65
2022-11-29T10:20:20.379Z,19.92
2022-11-29T10:23:01.751Z,26.53
2022-11-29T10:25:55.865Z,23.42
2022-11-29T10:28:31.168Z,23.60
2022-11-29T10:31:08.317Z,26.77
2022-11-29T10:33:39.497Z,17.83
2022-11-29T10:36:34.565Z,36.47
2022-11-29T10:39:14.425Z,31.30
2022-11-29T10:41:41.424Z,25.48
2022-11-29T10:44:14.275Z,20.00
2022-11-29T10:46:41.230Z,23.13
2022-11-29T10:49:14.892Z,20.63
2022-11-29T10:51:41.728Z,15.82
2022-11-29T10:54:27.305Z,19.10
2022-11-29T10:56:56.473Z,21.30
2022-11-29T10:59:28.798Z,19.85
2022-11-29T11:01:55.792Z,23.87
2022-11-29T11:04:31.888Z,20.58
2022-11-29T11:07:01.357Z,16.70
2022-11-29T11:09:46.545Z,19.88
2022-11-29T11:12:16.112Z,19.27
2022-11-29T11:14:44.235Z,22.00
2022-11-29T11:17:26.418Z,22.17
2022-11-29T11:20:00.985Z,19.13
2022-11-29T11:22:29.574Z,21.05
2022-11-29T11:25:05.604Z,27.33
2022-11-29T11:27:36.065Z,20.37
2022-11-29T11:30:05.782Z,17.00
2022-11-29T11:32:32.352Z,26.90
2022-11-29T11:35:01.678Z,24.70
2022-11-29T11:37:30.298Z,22.42
2022-11-29T11:40:18.670Z,27.13
2022-11-29T11:42:45.333Z,19.52
2022-11-29T11:45:11.711Z,23.58
2022-11-29T11:47:46.612Z,22.20
2022-11-29T11:50:25.928Z,20.90
2022-11-29T11:52:55.747Z,16.33
2022-11-29T11:55:22.138Z,22.55
2022-11-29T11:58:12.963Z,21.77
2022-11-29T12:01:05.930Z,19.00
2022-11-29T12:04:06.711Z,18.55
2022-11-29T12:06:39.320Z,20.97
2022-11-29T12:09:18.551Z,24.75
2022-11-29T12:12:03.668Z,23.40
2022-11-29T12:14:43.471Z,21.45
2022-11-29T12:17:37.868Z,18.23
2022-11-29T12:20:07.269Z,23.10
2022-11-29T12:23:11.465Z,25.73
2022-11-29T12:25:47.224Z,20.08
2022-11-29T12:28:20.395Z,24.02
2022-11-29T12:31:06.314Z,28.15
2022-11-29T12:33:45.158Z,21.88
2022-11-29T12:36:28.452Z,22.23
2022-11-29T12:39:20.578Z,22.92
2022-11-29T12:42:09.460Z,23.83
2022-11-29T12:44:51.733Z,25.20
2022-11-29T12:47:37.097Z,19.75
2022-11-29T12:50:30.693Z,20.87
2022-11-29T12:53:09.326Z,21.17
2022-11-29T12:56:06.937Z,22.85
2022-11-29T12:59:09.442Z,18.92
2022-11-29T13:02:03.034Z,23.38
2022-11-29T13:04:44.146Z,23.03
2022-11-29T13:07:31.133Z,25.42
2022-11-29T13:10:20.833Z,24.38
2022-11-29T13:12:55.212Z,21.77
2022-11-29T13:15:27.679Z,18.13
2022-11-29T13:18:17.829Z,20.87
2022-11-29T13:21:01.462Z,24.27
2022-11-29T13:24:11.920Z,23.48
2022-11-29T13:26:43.106Z,25.45
2022-11-29T13:29:18.114Z,22.90
2022-11-29T13:31:46.761Z,23.30
2022-11-29T13:34:36.284Z,21.92
2022-11-29T13:37:23.476Z,18.27
2022-11-29T13:40:19.363Z,19.27
2022-11-29T13:43:03.973Z,18.75
2022-11-29T13:45:36.287Z,27.33
2022-11-29T13:48:26.425Z,22.33
2022-11-29T13:50:56.630Z,22.35
2022-11-29T13:53:48.147Z,16.42
2022-11-29T13:56:47.897Z,20.35
2022-11-29T13:59:29.457Z,19.93
2022-11-29T14:01:58.532Z,19.98
2022-11-29T14:04:37.779Z,15.20
2022-11-29T14:07:08.298Z,19.17
2022-11-29T14:09:55.837Z,14.73
2022-11-29T14:12:28.810Z,17.93
2022-11-29T14:15:00.791Z,14.90
2022-11-29T14:17:57.315Z,23.27
2022-11-29T14:20:23.678Z,12.70
2022-11-29T14:23:05.441Z,17.02
2022-11-29T14:28:23.317Z,17.65
2022-11-29T14:30:52.173Z,21.88
2022-11-29T14:33:31.979Z,21.98
2022-11-29T14:36:19.898Z,17.33
2022-11-29T14:39:40.951Z,20.30
2022-11-29T14:42:23.459Z,14.88
2022-11-29T14:44:51.591Z,15.43
2022-11-29T14:47:30.130Z,13.68
2022-11-29T14:49:59.336Z,20.20
2022-11-29T14:52:32.238Z,18.17
2022-11-29T14:55:00.818Z,17.60
2022-11-29T14:58:06.340Z,19.17
2022-11-29T15:00:33.814Z,20.30
2022-11-29T15:03:22.676Z,13.13
2022-11-29T15:06:08.640Z,14.50
2022-11-29T15:08:55.350Z,20.95
2022-11-29T15:11:50.356Z,19.13
2022-11-29T15:14:53.639Z,22.10
2022-11-29T15:17:47.501Z,15.45
2022-11-29T15:20:29.199Z,11.63
2022-11-29T15:23:00.924Z,18.25
2022-11-29T15:25:31.074Z,18.48
2022-11-29T15:28:06.119Z,18.38
2022-11-29T15:30:40.722Z,16.63
2022-11-29T15:33:23.270Z,13.83
2022-11-29T15:35:52.805Z,15.30
2022-11-29T15:38:20.984Z,16.10
2022-11-29T15:40:53.202Z,15.38
2022-11-29T15:43:35.979Z,13.15
2022-11-29T15:46:02.612Z,13.40
2022-11-29T15:48:31.852Z,17.58
2022-11-29T15:51:04.191Z,17.90
2022-11-29T15:53:35.501Z,15.18
2022-11-29T15:56:05.238Z,16.15
2022-11-29T15:58:33.953Z,15.50
2022-11-29T16:01:01.931Z,17.23
2022-11-29T16:03:32.433Z,46.92
2022-11-29T16:06:17.799Z,36.58
2022-11-29T16:08:44.408Z,38.45
2022-11-29T16:11:17.781Z,34.13
2022-11-29T16:14:02.724Z,25.42
2022-11-29T16:16:32.717Z,29.73
2022-11-29T16:19:28.843Z,40.80
2022-11-29T16:22:23.671Z,28.73
2022-11-29T16:24:55.931Z,32.03
2022-11-29T16:27:23.430Z,26.30
2022-11-29T16:29:54.921Z,22.58
2022-11-29T16:32:31.642Z,19.50
2022-11-29T16:35:05.765Z,22.23
2022-11-29T16:37:40.989Z,31.20
2022-11-29T16:40:20.049Z,25.05
2022-11-29T16:43:04.960Z,27.30
2022-11-29T16:45:35.018Z,22.15
2022-11-29T16:48:02.896Z,49.53
2022-11-29T16:50:31.064Z,55.20
2022-11-29T16:53:36.865Z,53.55
2022-11-29T16:56:05.472Z,29.75
2022-11-29T16:58:35.460Z,50.00
2022-11-29T17:01:24.712Z,25.63
2022-11-29T17:03:51.603Z,24.10
2022-11-29T17:06:22.508Z,27.70
2022-11-29T17:08:51.036Z,29.30
2022-11-29T17:11:30.258Z,22.77
2022-11-29T17:13:56.860Z,23.23
2022-11-29T17:16:24.790Z,22.70
2022-11-29T17:18:52.814Z,23.15
2022-11-29T17:21:24.604Z,27.15
2022-11-29T17:23:51.994Z,25.88
2022-11-29T17:26:18.925Z,25.33
2022-11-29T17:28:46.948Z,24.57
2022-11-29T17:31:19.260Z,20.90
2022-11-29T17:33:45.939Z,25.40
2022-11-29T17:36:15.293Z,27.73
2022-11-29T17:38:43.286Z,23.92
2022-11-29T17:41:15.301Z,25.30
2022-11-29T17:43:42.278Z,24.58
2022-11-29T17:46:21.302Z,19.42
2022-11-29T17:48:48.103Z,21.17
2022-11-29T17:51:43.809Z,20.92
2022-11-29T17:54:04.433Z,25.73
2022-11-29T17:56:31.468Z,23.58
2022-11-29T17:58:59.647Z,18.00
2022-11-29T18:01:32.066Z,20.15
2022-11-29T18:04:00.246Z,21.95
2022-11-29T18:06:29.228Z,21.60
2022-11-29T18:08:58.743Z,25.23
2022-11-29T18:11:40.328Z,32.83
2022-11-29T18:14:13.730Z,24.95
2022-11-29T18:16:40.356Z,27.23
2022-11-29T18:19:10.515Z,26.37
2022-11-29T18:21:38.192Z,26.02
2022-11-29T18:24:06.386Z,21.50
2022-11-29T18:26:34.634Z,17.33
2022-11-29T18:29:01.409Z,22.38
2022-11-29T18:31:37.944Z,17.97
2022-11-29T18:34:07.149Z,20.73
2022-11-29T18:36:36.220Z,17.30
2022-11-29T18:39:05.848Z,19.15
2022-11-29T18:41:32.888Z,20.67
2022-11-29T18:44:01.850Z,20.37
2022-11-29T18:46:32.924Z,21.50
2022-11-29T18:49:01.022Z,20.02
2022-11-29T18:51:29.448Z,22.52
2022-11-29T18:53:56.480Z,17.92
2022-11-29T18:56:25.146Z,17.57
2022-11-29T18:59:00.521Z,24.10
2022-11-29T19:01:29.493Z,18.10
2022-11-29T19:03:58.602Z,17.20
2022-11-29T19:06:29.399Z,17.23
2022-11-29T19:09:01.086Z,15.83
2022-11-29T19:11:30.389Z,15.02
2022-11-29T19:13:59.945Z,16.98
2022-11-29T19:16:28.998Z,19.83
2022-11-29T19:18:57.228Z,12.57
2022-11-29T19:21:25.814Z,16.93
2022-11-29T19:23:57.238Z,15.02
2022-11-29T19:26:26.241Z,14.13
2022-11-29T19:28:54.102Z,20.02
2022-11-29T19:31:26.914Z,14.80
2022-11-29T19:33:54.735Z,18.30
2022-11-29T19:36:31.738Z,13.30
2022-11-29T19:39:01.336Z,15.55
2022-11-29T19:41:30.879Z,20.95
2022-11-29T19:43:58.895Z,17.10
2022-11-29T19:46:28.314Z,15.97
2022-11-29T19:48:56.251Z,19.98
2022-11-29T19:51:23.555Z,13.55
2022-11-29T19:53:55.105Z,17.63
2022-11-29T19:56:22.377Z,17.55
2022-11-29T19:58:50.023Z,16.17
2022-11-29T20:01:24.393Z,16.25
2022-11-29T20:03:52.490Z,11.98
2022-11-29T20:06:19.171Z,17.27
2022-11-29T20:08:45.998Z,16.45
2022-11-29T20:11:18.512Z,14.77
2022-11-29T20:13:47.729Z,14.13
2022-11-29T20:16:18.145Z,11.00
2022-11-29T20:18:50.652Z,14.13
2022-11-29T20:21:21.018Z,16.83
2022-11-29T20:23:47.558Z,12.77
2022-11-29T20:26:19.333Z,12.77
2022-11-29T20:28:46.891Z,12.35
2022-11-29T20:31:16.743Z,16.65
2022-11-29T20:33:44.722Z,12.05
2022-11-29T20:36:42.897Z,15.80
2022-11-29T20:39:43.532Z,18.17
2022-11-29T20:42:28.586Z,14.38
2022-11-29T20:44:57.229Z,13.15
2022-11-29T20:47:27.165Z,12.50
2022-11-29T20:49:54.245Z,15.13
2022-11-29T20:52:40.947Z,18.23
2022-11-29T20:55:07.791Z,14.75
2022-11-29T20:57:34.272Z,13.85
2022-11-29T21:00:00.709Z,11.10
2022-11-29T21:02:27.095Z,14.27
2022-11-29T21:04:53.492Z,14.77
2022-11-29T21:07:19.923Z,13.13
2022-11-29T21:09:46.446Z,12.43
2022-11-29T21:12:13.331Z,16.95
2022-11-29T21:14:40.052Z,14.63
2022-11-29T21:17:07.887Z,22.48
2022-11-29T21:19:34.739Z,18.02
2022-11-29T21:22:23.068Z,12.00
2022-11-29T21:25:05.072Z,10.18
2022-11-29T21:27:33.595Z,12.17
2022-11-29T21:30:03.219Z,11.57
2022-11-29T21:32:30.734Z,11.82
2022-11-29T21:34:57.868Z,18.95
2022-11-29T21:37:29.805Z,12.80
2022-11-29T21:39:57.195Z,15.20
2022-11-29T21:42:23.667Z,13.73
2022-11-29T21:44:50.032Z,12.35
2022-11-29T21:47:16.482Z,12.40
2022-11-29T21:49:42.883Z,16.38
2022-11-29T21:52:09.299Z,16.93
2022-11-29T21:54:35.664Z,17.40
2022-11-29T21:57:02.149Z,11.13
2022-11-29T21:59:29.375Z,20.25
2022-11-29T22:01:55.935Z,15.52
2022-11-29T22:04:23.274Z,15.30
2022-11-29T22:06:49.719Z,14.77
2022-11-29T22:09:16.156Z,12.77
2022-11-29T22:11:42.636Z,14.63
2022-11-29T22:14:14.562Z,13.02
2022-11-29T22:16:58.711Z,19.23
2022-11-29T22:19:27.459Z,14.15
2022-11-29T22:22:00.560Z,12.93
2022-11-29T22:24:29.535Z,12.55
2022-11-29T22:26:56.655Z,13.40
2022-11-29T22:29:24.059Z,17.07
2022-11-29T22:31:53.379Z,15.85
2022-11-29T22:34:20.458Z,29.70
2022-11-29T22:36:46.966Z,17.10
2022-11-29T22:39:14.122Z,16.35
2022-11-29T22:41:41.344Z,17.90
2022-11-29T22:44:08.053Z,19.13
2022-11-29T22:46:37.345Z,19.73
2022-11-29T22:49:03.865Z,20.33
2022-11-29T22:51:32.470Z,19.90
2022-11-29T22:54:01.453Z,16.53
2022-11-29T22:56:31.039Z,20.60
2022-11-29T22:58:57.666Z,17.88
2022-11-29T23:01:26.253Z,19.60
2022-11-29T23:03:54.640Z,19.48
2022-11-29T23:06:26.674Z,16.97
2022-11-29T23:08:55.587Z,20.40
2022-11-29T23:11:25.122Z,19.48
2022-11-29T23:13:51.680Z,21.60
2022-11-29T23:16:24.808Z,23.95
2022-11-29T23:18:51.883Z,22.73
2022-11-29T23:21:24.128Z,20.45
2022-11-29T23:23:56.029Z,20.98
2022-11-29T23:26:29.037Z,18.77
2022-11-29T23:28:56.420Z,21.30
2022-11-29T23:31:24.180Z,19.80
2022-11-29T23:33:50.926Z,19.70
2022-11-29T23:36:17.808Z,21.10
2022-11-29T23:38:44.523Z,20.88
2022-11-29T23:41:11.651Z,19.30
2022-11-29T23:43:40.599Z,19.90
2022-11-29T23:46:21.722Z,19.52
2022-11-29T23:48:48.581Z,22.30
2022-11-29T23:51:16.065Z,20.95
2022-11-29T23:53:43.104Z,18.60
2022-11-29T23:56:14.970Z,21.00
2022-11-29T23:58:42.185Z,19.92
